Time;durP1;ratioP1;P1;durP2;ratioP2;P2;SDS_P1;SDS_P2;PMS_P1;PMS_P2;Temp;Humidity;BMP_temperature;BMP_pressure;BME280_temperature;BME280_humidity;BME280_pressure;Samples;Min_cycle;Max_cycle;Signal;HPM_P1;HPM_P2
2023/10/03 00:01:38;;;;;;;2.00;1.30;;;16.70;74.90;;;;;;5060334;28;20664;-67
2023/10/03 00:04:07;;;;;;;1.73;1.15;;;16.70;74.90;;;;;;5063020;28;20025;-67
2023/10/03 00:06:33;;;;;;;1.40;1.10;;;16.70;74.90;;;;;;5058826;28;20520;-67
2023/10/03 00:08:59;;;;;;;2.05;1.38;;;16.70;74.90;;;;;;5059638;28;20106;-67
2023/10/03 00:11:26;;;;;;;1.35;0.95;;;16.70;74.90;;;;;;5055568;28;20455;-67
2023/10/03 00:13:54;;;;;;;1.52;1.15;;;16.70;74.90;;;;;;5062118;28;20045;-69
2023/10/03 00:16:21;;;;;;;1.63;1.00;;;16.60;74.70;;;;;;5054986;28;20397;-67
2023/10/03 00:18:47;;;;;;;1.85;1.08;;;16.60;74.60;;;;;;5054214;28;20071;-66
2023/10/03 00:21:13;;;;;;;2.00;1.27;;;16.60;74.60;;;;;;5061836;28;20432;-66
2023/10/03 00:23:39;;;;;;;1.10;1.00;;;16.60;74.60;;;;;;5064511;28;20371;-67
2023/10/03 00:26:15;;;;;;;1.33;1.15;;;16.60;74.60;;;;;;5058014;28;20403;-70
2023/10/03 00:28:42;;;;;;;1.42;1.13;;;16.60;74.60;;;;;;5057664;28;20059;-66
2023/10/03 00:31:13;;;;;;;2.03;1.38;;;16.50;74.40;;;;;;5055726;28;20484;-69
2023/10/03 00:33:42;;;;;;;1.55;1.15;;;16.50;74.50;;;;;;5059159;28;20033;-66
2023/10/03 00:36:25;;;;;;;1.65;1.10;;;16.50;74.50;;;;;;5054305;28;20033;-70
2023/10/03 00:38:52;;;;;;;1.48;1.10;;;16.50;74.50;;;;;;5063382;28;20147;-69
2023/10/03 00:41:19;;;;;;;3.10;1.40;;;16.50;74.50;;;;;;5060749;28;20036;-68
2023/10/03 00:43:52;;;;;;;1.90;1.33;;;16.40;74.30;;;;;;5058451;28;20043;-70
2023/10/03 00:46:19;;;;;;;4.47;1.40;;;16.50;74.50;;;;;;5059537;28;20072;-67
2023/10/03 00:48:47;;;;;;;1.80;1.30;;;16.50;74.50;;;;;;5055678;28;20406;-71
2023/10/03 00:51:14;;;;;;;1.35;1.02;;;16.40;74.40;;;;;;5057912;28;20044;-67
2023/10/03 00:53:41;;;;;;;2.47;1.20;;;16.40;74.40;;;;;;5059235;28;20571;-71
2023/10/03 00:56:11;;;;;;;2.92;1.60;;;16.40;74.40;;;;;;5051518;28;20061;-68
2023/10/03 00:58:39;;;;;;;1.95;1.40;;;16.40;74.50;;;;;;5060990;28;20564;-75
2023/10/03 01:01:05;;;;;;;2.45;1.33;;;16.40;74.50;;;;;;5060123;28;20502;-69
2023/10/03 01:03:36;;;;;;;1.73;1.27;;;16.30;74.40;;;;;;5061028;28;20127;-74
2023/10/03 01:06:08;;;;;;;2.15;1.23;;;16.30;74.40;;;;;;5063505;28;20068;-66
2023/10/03 01:08:45;;;;;;;2.20;1.17;;;16.30;74.50;;;;;;5060140;28;20025;-66
2023/10/03 01:11:15;;;;;;;2.00;1.25;;;16.30;74.50;;;;;;5056820;28;20546;-69
2023/10/03 01:13:46;;;;;;;2.30;1.48;;;16.30;74.50;;;;;;5058406;28;20028;-68
2023/10/03 01:16:12;;;;;;;2.72;1.73;;;16.30;74.50;;;;;;5054971;28;20033;-66
2023/10/03 01:18:41;;;;;;;2.17;1.35;;;16.20;74.40;;;;;;5059445;28;20024;-67
2023/10/03 01:21:11;;;;;;;2.00;1.35;;;16.20;74.50;;;;;;5054517;28;20032;-66
2023/10/03 01:23:39;;;;;;;2.53;1.70;;;16.20;74.50;;;;;;5054122;28;20106;-68
2023/10/03 01:26:07;;;;;;;2.17;1.52;;;16.20;74.60;;;;;;5058019;28;20040;-68
2023/10/03 01:28:38;;;;;;;3.80;2.07;;;16.20;74.60;;;;;;5070612;28;20052;-70
2023/10/03 01:31:04;;;;;;;2.90;1.75;;;16.10;74.40;;;;;;5058483;28;20288;-68
2023/10/03 01:33:32;;;;;;;3.13;1.90;;;16.10;74.50;;;;;;5060707;28;20024;-67
2023/10/03 01:36:02;;;;;;;2.92;1.70;;;16.10;74.50;;;;;;5056004;28;20071;-78
2023/10/03 01:38:28;;;;;;;3.10;1.80;;;16.10;74.50;;;;;;5055112;28;20107;-78
2023/10/03 01:41:00;;;;;;;3.33;2.20;;;16.10;74.50;;;;;;5056494;28;20041;-78
2023/10/03 01:43:26;;;;;;;3.85;1.77;;;16.00;74.30;;;;;;5040267;28;20110;-75
2023/10/03 01:45:53;;;;;;;4.28;2.67;;;16.00;74.40;;;;;;5066458;28;20028;-81
2023/10/03 01:48:20;;;;;;;4.30;2.47;;;16.00;74.40;;;;;;5056898;28;20037;-81
2023/10/03 01:50:50;;;;;;;5.75;2.28;;;16.00;74.40;;;;;;5053434;28;20032;-80
2023/10/03 01:53:17;;;;;;;2.92;2.10;;;15.90;74.30;;;;;;5052657;28;20040;-78
2023/10/03 01:55:44;;;;;;;4.07;2.13;;;15.90;74.30;;;;;;5057932;28;20488;-79
2023/10/03 01:58:10;;;;;;;3.97;2.53;;;15.90;74.30;;;;;;5057725;28;20052;-77
2023/10/03 02:00:37;;;;;;;4.43;2.30;;;15.90;74.40;;;;;;5056983;28;20037;-81
2023/10/03 02:03:05;;;;;;;3.88;2.10;;;15.80;74.20;;;;;;5042880;28;20036;-75
2023/10/03 02:05:38;;;;;;;6.80;2.25;;;15.80;74.30;;;;;;5056315;28;20032;-73
2023/10/03 02:08:12;;;;;;;4.93;2.03;;;15.80;74.30;;;;;;5058784;28;20029;-81
2023/10/03 02:10:39;;;;;;;4.72;2.63;;;15.80;74.30;;;;;;5050372;28;20056;-78
2023/10/03 02:13:14;;;;;;;4.97;2.25;;;15.80;74.30;;;;;;5055705;28;20115;-78
2023/10/03 02:15:48;;;;;;;5.38;2.10;;;15.70;74.20;;;;;;5048762;28;20137;-80
2023/10/03 02:18:19;;;;;;;3.63;2.67;;;15.70;74.20;;;;;;5054100;28;20044;-69
2023/10/03 02:20:52;;;;;;;3.13;2.00;;;15.70;74.20;;;;;;5059057;28;21018;-74
2023/10/03 02:23:19;;;;;;;;;;;15.70;74.30;;;;;;5036472;28;20047;-70
2023/10/03 02:25:46;;;;;;;3.53;2.17;;;15.70;74.30;;;;;;5055594;28;19916;-73
2023/10/03 02:28:14;;;;;;;4.22;2.47;;;15.60;74.20;;;;;;5059343;28;20110;-67
2023/10/03 02:30:40;;;;;;;2.72;1.92;;;15.60;74.20;;;;;;5055264;28;20101;-70
2023/10/03 02:33:12;;;;;;;3.67;2.72;;;15.50;74.10;;;;;;5064864;28;20388;-67
2023/10/03 02:35:42;;;;;;;3.58;2.13;;;15.50;74.20;;;;;;5064538;28;20492;-70
2023/10/03 02:38:13;;;;;;;3.35;2.28;;;15.50;74.20;;;;;;5072654;28;20028;-71
2023/10/03 02:40:40;;;;;;;5.07;4.10;;;15.40;74.00;;;;;;5070032;28;20048;-70
2023/10/03 02:43:10;;;;;;;3.55;2.22;;;15.40;74.00;;;;;;5070915;28;20028;-67
2023/10/03 02:45:37;;;;;;;5.20;2.78;;;15.40;74.10;;;;;;5062152;28;20495;-74
2023/10/03 02:48:14;;;;;;;6.80;2.22;;;15.40;74.10;;;;;;5035296;28;20118;-68
2023/10/03 02:50:46;;;;;;;3.50;2.17;;;15.30;74.00;;;;;;5052751;28;20039;-72
2023/10/03 02:53:19;;;;;;;3.10;2.40;;;15.30;74.00;;;;;;5058441;28;20112;-72
2023/10/03 02:55:49;;;;;;;4.35;2.63;;;15.20;73.90;;;;;;5061678;28;20036;-73
2023/10/03 02:58:19;;;;;;;3.22;2.38;;;15.20;74.00;;;;;;5057865;28;20151;-73
2023/10/03 03:00:49;;;;;;;3.60;2.60;;;15.20;74.00;;;;;;5059856;28;20036;-70
2023/10/03 03:03:15;;;;;;;3.97;2.78;;;15.10;73.90;;;;;;5057807;28;20522;-72
2023/10/03 03:05:44;;;;;;;4.93;2.45;;;15.10;73.90;;;;;;5058790;28;20051;-74
2023/10/03 03:10:55;;;;;;;4.55;3.20;;;15.00;73.80;;;;;;5059694;28;20060;-67
2023/10/03 03:13:27;;;;;;;2.80;2.25;;;15.00;73.90;;;;;;5057153;28;20040;-67
2023/10/03 03:15:59;;;;;;;3.23;2.47;;;15.00;73.90;;;;;;5050015;28;20151;-69
2023/10/03 03:18:31;;;;;;;2.60;1.90;;;15.00;74.00;;;;;;5056887;28;20046;-69
2023/10/03 03:21:01;;;;;;;4.78;2.33;;;14.90;73.90;;;;;;5056322;28;20595;-71
2023/10/03 03:23:35;;;;;;;4.18;2.20;;;14.90;73.90;;;;;;5059243;28;20111;-69
2023/10/03 03:28:59;;;;;;;5.85;3.38;;;14.80;73.80;;;;;;5031098;28;20040;-69
2023/10/03 03:31:26;;;;;;;4.68;2.40;;;14.80;73.90;;;;;;5062768;28;20068;-66
2023/10/03 03:33:53;;;;;;;4.07;2.35;;;14.80;73.90;;;;;;5061020;28;20074;-68
2023/10/03 03:36:21;;;;;;;4.38;2.65;;;14.70;73.70;;;;;;5058244;28;20029;-67
2023/10/03 03:38:49;;;;;;;3.08;2.08;;;14.70;73.80;;;;;;5056196;28;20036;-73
2023/10/03 03:41:16;;;;;;;4.25;2.35;;;14.60;73.60;;;;;;5061336;28;20072;-75
2023/10/03 03:43:45;;;;;;;3.63;2.30;;;14.60;73.60;;;;;;5058014;28;20025;-71
2023/10/03 03:46:12;;;;;;;3.65;2.22;;;14.60;73.60;;;;;;5060216;28;20075;-72
2023/10/03 03:48:38;;;;;;;4.13;2.42;;;14.50;73.50;;;;;;5055251;28;20033;-73
2023/10/03 03:51:12;;;;;;;3.72;2.08;;;14.50;73.60;;;;;;5061268;28;20107;-75
2023/10/03 03:53:38;;;;;;;5.80;2.42;;;14.40;73.40;;;;;;5056786;28;20364;-71
2023/10/03 03:56:05;;;;;;;5.07;3.08;;;14.40;73.50;;;;;;5055510;28;20044;-71
2023/10/03 03:58:31;;;;;;;3.35;2.40;;;14.40;73.60;;;;;;5058518;28;20048;-70
2023/10/03 04:00:58;;;;;;;3.72;3.05;;;14.40;73.60;;;;;;5053442;28;20033;-75
2023/10/03 04:03:26;;;;;;;4.65;2.70;;;14.30;73.50;;;;;;5052496;28;20055;-70
2023/10/03 04:05:52;;;;;;;5.00;2.83;;;14.30;73.50;;;;;;5063683;28;20183;-70
2023/10/03 04:08:18;;;;;;;3.97;2.50;;;14.30;73.60;;;;;;5058734;28;20116;-71
2023/10/03 04:10:44;;;;;;;3.85;2.53;;;14.30;73.60;;;;;;5057419;28;20491;-74
2023/10/03 04:13:10;;;;;;;3.30;2.67;;;14.20;73.50;;;;;;5059062;28;20040;-71
2023/10/03 04:15:40;;;;;;;4.03;2.33;;;14.20;73.50;;;;;;5059892;28;20056;-70
2023/10/03 04:18:09;;;;;;;3.63;2.80;;;14.20;73.50;;;;;;5060669;28;20035;-68
2023/10/03 04:20:41;;;;;;;5.68;2.65;;;14.10;73.30;;;;;;5061228;28;20262;-79
2023/10/03 04:23:08;;;;;;;3.53;2.28;;;14.10;73.30;;;;;;5063632;28;20033;-74
2023/10/03 04:25:34;;;;;;;3.60;2.03;;;14.10;73.40;;;;;;5060332;28;20090;-71
2023/10/03 04:28:01;;;;;;;4.45;1.88;;;14.10;73.40;;;;;;5053850;28;20566;-73
2023/10/03 04:30:27;;;;;;;3.38;2.53;;;14.00;73.30;;;;;;5063934;28;20052;-74
2023/10/03 04:32:54;;;;;;;4.13;2.67;;;14.00;73.40;;;;;;5057305;28;20021;-79
2023/10/03 04:35:22;;;;;;;4.00;2.47;;;14.00;73.40;;;;;;5066591;28;20036;-76
2023/10/03 04:37:51;;;;;;;3.55;2.10;;;14.00;73.40;;;;;;5057400;28;20037;-76
2023/10/03 04:40:22;;;;;;;3.10;2.03;;;14.00;73.50;;;;;;5070104;28;20048;-77
2023/10/03 04:42:49;;;;;;;2.75;1.98;;;14.00;73.50;;;;;;5064956;28;20566;-74
2023/10/03 04:45:18;;;;;;;3.38;2.47;;;14.00;73.50;;;;;;5069555;28;20051;-70
2023/10/03 04:47:45;;;;;;;4.18;2.30;;;14.00;73.50;;;;;;5065632;28;20055;-75
2023/10/03 04:50:11;;;;;;;3.72;2.30;;;14.00;73.50;;;;;;5065632;28;20094;-72
2023/10/03 04:52:38;;;;;;;2.63;1.92;;;13.90;73.30;;;;;;5068339;28;20496;-68
2023/10/03 04:55:04;;;;;;;3.03;2.15;;;13.90;73.40;;;;;;5067653;28;20032;-67
2023/10/03 04:57:30;;;;;;;3.80;2.15;;;13.90;73.30;;;;;;5065187;28;20024;-66
2023/10/03 04:59:56;;;;;;;4.18;3.10;;;13.90;73.40;;;;;;5067865;28;20077;-69
2023/10/03 05:02:28;;;;;;;4.47;1.90;;;13.90;73.40;;;;;;5054086;28;20029;-71
2023/10/03 05:04:57;;;;;;;4.00;2.33;;;13.90;73.40;;;;;;5054982;28;20191;-67
2023/10/03 05:07:23;;;;;;;4.90;2.38;;;13.80;73.20;;;;;;5063095;28;20032;-69
2023/10/03 05:09:51;;;;;;;3.38;2.33;;;13.80;73.20;;;;;;5061609;28;20036;-68
2023/10/03 05:12:18;;;;;;;5.45;2.70;;;13.80;73.30;;;;;;5061637;28;20477;-72
2023/10/03 05:14:48;;;;;;;3.63;2.40;;;13.80;73.30;;;;;;5057742;28;20094;-70
2023/10/03 05:17:15;;;;;;;4.35;2.20;;;13.80;73.30;;;;;;5058055;28;20279;-68
2023/10/03 05:19:42;;;;;;;3.78;2.63;;;13.70;73.20;;;;;;5059565;28;20033;-67
2023/10/03 05:22:08;;;;;;;4.20;2.88;;;13.70;73.20;;;;;;5062043;28;20668;-67
2023/10/03 05:24:36;;;;;;;4.68;2.60;;;13.60;73.00;;;;;;5059750;28;20040;-68
2023/10/03 05:27:04;;;;;;;3.63;2.38;;;13.60;73.20;;;;;;5061087;28;20347;-67
2023/10/03 05:29:30;;;;;;;2.95;2.28;;;13.60;73.00;;;;;;5056592;28;20060;-72
2023/10/03 05:31:56;;;;;;;6.22;2.80;;;13.50;73.40;;;;;;5055567;28;20029;-66
2023/10/03 05:34:22;;;;;;;5.35;2.97;;;13.50;72.90;;;;;;5051078;28;20147;-67
2023/10/03 05:36:49;;;;;;;3.40;2.45;;;13.50;73.00;;;;;;5054000;28;20040;-66
2023/10/03 05:39:16;;;;;;;5.80;2.58;;;13.50;73.00;;;;;;5050242;28;20082;-67
2023/10/03 05:41:42;;;;;;;5.30;2.28;;;13.40;72.80;;;;;;5056970;28;20039;-68
2023/10/03 05:44:11;;;;;;;3.40;2.53;;;13.40;72.80;;;;;;5053826;28;20040;-68
2023/10/03 05:46:41;;;;;;;4.35;2.35;;;13.40;72.90;;;;;;5048659;28;20528;-67
2023/10/03 05:49:07;;;;;;;6.38;2.75;;;13.30;72.70;;;;;;5051695;28;20115;-67
2023/10/03 05:51:34;;;;;;;6.85;2.55;;;13.30;72.80;;;;;;5053980;28;20481;-69
2023/10/03 05:54:02;;;;;;;4.00;2.40;;;13.30;73.10;;;;;;5058121;28;20082;-67
2023/10/03 05:56:28;;;;;;;4.53;2.30;;;13.30;73.10;;;;;;5047877;28;20040;-67
2023/10/03 05:58:54;;;;;;;5.03;2.33;;;13.30;73.10;;;;;;5049878;28;20796;-68
2023/10/03 06:01:20;;;;;;;3.92;2.78;;;13.30;73.20;;;;;;5053142;28;20063;-70
2023/10/03 06:03:46;;;;;;;4.05;2.78;;;13.30;73.20;;;;;;5056241;28;20206;-67
2023/10/03 06:06:14;;;;;;;3.10;2.42;;;13.20;73.00;;;;;;5053910;28;20495;-67
2023/10/03 06:08:40;;;;;;;3.00;2.67;;;13.20;73.00;;;;;;5052003;28;20078;-67
2023/10/03 06:11:06;;;;;;;3.55;2.20;;;13.20;73.00;;;;;;5047590;28;20044;-70
2023/10/03 06:13:32;;;;;;;3.63;2.28;;;13.20;73.00;;;;;;5057127;28;20415;-67
2023/10/03 06:15:59;;;;;;;3.90;2.47;;;13.20;73.10;;;;;;5048741;28;20056;-67
2023/10/03 06:18:27;;;;;;;4.93;2.40;;;13.10;72.90;;;;;;5053681;28;20416;-67
2023/10/03 06:20:53;;;;;;;4.10;2.88;;;13.10;72.90;;;;;;5046849;28;20036;-67
2023/10/03 06:23:19;;;;;;;4.03;2.30;;;13.10;72.90;;;;;;5049082;28;20029;-66
2023/10/03 06:25:44;;;;;;;5.80;2.60;;;13.00;72.80;;;;;;5053835;28;20044;-68
2023/10/03 06:28:10;;;;;;;3.08;2.63;;;13.00;72.80;;;;;;5057476;28;20604;-67
2023/10/03 06:30:37;;;;;;;3.92;2.38;;;13.00;72.70;;;;;;5055843;28;20024;-70
2023/10/03 06:33:05;;;;;;;3.97;3.03;;;13.00;72.70;;;;;;5057720;28;20496;-68
2023/10/03 06:35:32;;;;;;;3.92;2.80;;;13.00;72.70;;;;;;5056045;28;20016;-67
2023/10/03 06:37:58;;;;;;;4.47;2.80;;;13.00;72.70;;;;;;5050914;28;20036;-70
2023/10/03 06:40:24;;;;;;;4.50;2.50;;;13.00;72.70;;;;;;5049538;28;20048;-67
2023/10/03 06:42:50;;;;;;;4.60;3.10;;;13.00;72.70;;;;;;5057248;28;20032;-67
2023/10/03 06:45:16;;;;;;;5.38;3.00;;;13.00;72.70;;;;;;5057401;28;20033;-66
2023/10/03 06:47:42;;;;;;;4.03;3.05;;;12.90;72.50;;;;;;5055987;28;20027;-68
2023/10/03 06:50:08;;;;;;;6.15;3.35;;;13.00;72.70;;;;;;5050923;28;20043;-70
2023/10/03 06:52:37;;;;;;;4.93;2.38;;;13.00;72.70;;;;;;5047079;28;20025;-68
2023/10/03 06:55:03;;;;;;;4.00;3.00;;;13.00;72.70;;;;;;5055237;28;20029;-69
2023/10/03 06:57:29;;;;;;;4.13;3.35;;;13.00;72.60;;;;;;5045984;28;20031;-67
2023/10/03 06:59:56;;;;;;;3.45;2.42;;;13.00;72.60;;;;;;5050825;28;20419;-67
2023/10/03 07:02:22;;;;;;;3.58;2.03;;;13.00;72.50;;;;;;5057324;28;20211;-68
2023/10/03 07:04:48;;;;;;;4.65;2.58;;;13.10;72.70;;;;;;5056614;28;20047;-69
2023/10/03 07:07:14;;;;;;;4.05;2.70;;;13.10;72.70;;;;;;5061532;28;20032;-68
2023/10/03 07:09:40;;;;;;;4.20;2.72;;;13.10;72.70;;;;;;5065002;28;20025;-69
2023/10/03 07:12:09;;;;;;;6.43;4.00;;;13.10;72.70;;;;;;5054525;28;20036;-67
2023/10/03 07:14:36;;;;;;;6.65;3.03;;;13.10;72.70;;;;;;5044433;28;20043;-67
2023/10/03 07:17:03;;;;;;;5.75;2.92;;;13.10;72.70;;;;;;5051440;28;20127;-67
2023/10/03 07:19:32;;;;;;;5.07;3.28;;;13.10;72.70;;;;;;5055184;28;20044;-68
2023/10/03 07:21:58;;;;;;;5.53;3.40;;;13.10;72.70;;;;;;5049595;28;20032;-68
2023/10/03 07:24:28;;;;;;;5.28;3.13;;;13.10;72.70;;;;;;5054514;28;20037;-72
2023/10/03 07:26:54;;;;;;;5.07;2.83;;;13.10;72.60;;;;;;5058208;28;20114;-73
2023/10/03 07:29:21;;;;;;;4.57;2.88;;;13.20;72.80;;;;;;5066104;28;20580;-74
2023/10/03 07:31:48;;;;;;;3.80;2.50;;;13.20;72.80;;;;;;5057876;28;20342;-73
2023/10/03 07:34:18;;;;;;;4.35;3.25;;;13.20;72.80;;;;;;5056451;28;20056;-70
2023/10/03 07:36:45;;;;;;;4.60;3.20;;;13.30;73.00;;;;;;5052268;28;20041;-70
2023/10/03 07:39:13;;;;;;;4.18;2.97;;;13.30;72.90;;;;;;5061271;28;20055;-68
2023/10/03 07:41:39;;;;;;;5.97;2.85;;;13.30;72.90;;;;;;5058015;28;20036;-68
2023/10/03 07:44:05;;;;;;;5.13;2.65;;;13.40;73.00;;;;;;5036129;28;20032;-67
2023/10/03 07:46:31;;;;;;;5.60;2.90;;;13.40;73.10;;;;;;5051666;28;20037;-75
2023/10/03 07:48:57;;;;;;;5.57;2.90;;;13.40;73.10;;;;;;5056800;28;20428;-73
2023/10/03 07:51:27;;;;;;;4.95;3.00;;;13.50;73.20;;;;;;5054711;28;20032;-74
2023/10/03 07:53:55;;;;;;;6.53;3.35;;;13.50;73.30;;;;;;5050868;28;20052;-69
2023/10/03 07:56:29;;;;;;;8.05;2.60;;;13.60;73.40;;;;;;5052204;28;20331;-71
2023/10/03 07:59:01;;;;;;;4.30;2.50;;;13.60;73.40;;;;;;5047552;28;20440;-68
2023/10/03 08:01:28;;;;;;;4.38;2.75;;;13.70;73.50;;;;;;5054018;28;20076;-69
2023/10/03 08:03:55;;;;;;;4.97;2.50;;;13.80;73.60;;;;;;5055709;28;20032;-71
2023/10/03 08:06:25;;;;;;;4.53;2.95;;;14.00;73.90;;;;;;5053194;28;20032;-71
2023/10/03 08:09:00;;;;;;;6.63;3.65;;;14.10;73.90;;;;;;5056637;28;20029;-74
2023/10/03 08:11:31;;;;;;;4.10;2.45;;;14.30;74.00;;;;;;5055162;28;20060;-70
2023/10/03 08:14:02;;;;;;;7.90;3.25;;;14.50;74.00;;;;;;5050461;28;20037;-70
2023/10/03 08:16:28;;;;;;;4.70;2.65;;;14.60;73.80;;;;;;5046702;28;20503;-71
2023/10/03 08:19:02;;;;;;;6.95;3.67;;;14.70;73.80;;;;;;5062345;28;20032;-69
2023/10/03 08:21:29;;;;;;;5.38;3.53;;;14.80;73.90;;;;;;5062780;28;20419;-70
2023/10/03 08:23:55;;;;;;;5.47;2.78;;;14.80;73.90;;;;;;5060860;28;20464;-68
2023/10/03 08:26:23;;;;;;;4.38;2.25;;;14.90;74.20;;;;;;5061800;28;20045;-69
2023/10/03 08:28:59;;;;;;;7.65;2.50;;;14.90;74.30;;;;;;5063833;28;20294;-69
2023/10/03 08:31:27;;;;;;;5.90;3.15;;;14.90;74.40;;;;;;5059920;28;20499;-69
2023/10/03 08:33:56;;;;;;;7.03;2.78;;;14.90;74.40;;;;;;5059224;28;20043;-68
2023/10/03 08:36:27;;;;;;;7.32;2.50;;;14.90;74.50;;;;;;5055199;28;20036;-69
2023/10/03 08:39:04;;;;;;;6.78;2.97;;;15.00;74.70;;;;;;5057259;28;20041;-72
2023/10/03 08:41:47;;;;;;;9.73;2.90;;;15.10;74.60;;;;;;5061032;28;20110;-72
2023/10/03 08:44:31;;;;;;;5.63;2.33;;;15.30;74.80;;;;;;5059435;28;20032;-71
2023/10/03 08:47:00;;;;;;;6.25;2.60;;;15.40;74.80;;;;;;5058036;28;20056;-71
2023/10/03 08:49:38;;;;;;;5.35;2.53;;;15.40;74.60;;;;;;5059612;28;20047;-68
2023/10/03 08:52:05;;;;;;;7.28;4.03;;;15.40;74.50;;;;;;5053774;28;20033;-67
2023/10/03 08:54:36;;;;;;;6.85;2.38;;;15.50;74.60;;;;;;5058555;28;20139;-67
2023/10/03 08:57:04;;;;;;;3.78;1.92;;;15.50;74.60;;;;;;5051844;28;20086;-73
2023/10/03 08:59:33;;;;;;;6.65;2.10;;;15.50;74.60;;;;;;5052442;28;20143;-74
2023/10/03 09:02:14;;;;;;;5.63;2.25;;;15.50;74.70;;;;;;5056055;28;20079;-73
2023/10/03 09:04:40;;;;;;;3.97;1.90;;;15.50;74.70;;;;;;5058770;28;20040;-71
2023/10/03 09:07:09;;;;;;;8.68;2.53;;;15.50;74.70;;;;;;5061182;28;20036;-68
2023/10/03 09:09:42;;;;;;;5.78;1.65;;;15.50;75.20;;;;;;5061739;28;20924;-73
2023/10/03 09:12:09;;;;;;;4.82;2.05;;;15.50;74.70;;;;;;5061521;28;20041;-73
2023/10/03 09:14:38;;;;;;;3.25;1.63;;;15.50;74.60;;;;;;5049897;28;20179;-72
2023/10/03 09:17:05;;;;;;;3.92;1.48;;;15.50;74.60;;;;;;5053090;28;20041;-68
2023/10/03 09:19:45;;;;;;;6.40;1.52;;;15.60;74.80;;;;;;5055098;28;20037;-68
2023/10/03 09:22:30;;;;;;;4.93;1.73;;;15.60;74.70;;;;;;5055723;28;20324;-69
2023/10/03 09:24:56;;;;;;;4.50;1.70;;;15.60;74.60;;;;;;5052499;28;20531;-70
2023/10/03 09:27:30;;;;;;;3.60;1.50;;;15.60;74.50;;;;;;5052768;28;20048;-70
2023/10/03 09:29:58;;;;;;;3.13;1.60;;;15.70;74.70;;;;;;5059122;28;20036;-71
2023/10/03 09:32:25;;;;;;;4.07;1.55;;;15.70;74.60;;;;;;5057360;28;20584;-68
2023/10/03 09:34:57;;;;;;;3.95;1.55;;;15.70;74.50;;;;;;5059436;28;20120;-70
2023/10/03 09:37:28;;;;;;;;;;;15.70;74.40;;;;;;5048013;28;20514;-71
2023/10/03 09:39:59;;;;;;;5.85;1.83;;;15.80;74.50;;;;;;5063259;28;20115;-72
2023/10/03 09:42:25;;;;;;;5.03;2.10;;;15.80;74.40;;;;;;5058413;28;20043;-69
2023/10/03 09:44:57;;;;;;;4.40;1.50;;;15.90;74.50;;;;;;5062139;28;20074;-73
2023/10/03 09:47:32;;;;;;;4.57;1.52;;;15.90;74.40;;;;;;5057762;28;20078;-69
2023/10/03 09:50:06;;;;;;;4.10;1.52;;;16.00;74.50;;;;;;5041605;28;20028;-68
2023/10/03 09:52:33;;;;;;;5.28;1.73;;;16.00;74.40;;;;;;5058289;28;20441;-68
2023/10/03 09:55:17;;;;;;;2.35;1.30;;;16.00;74.30;;;;;;5056759;28;20039;-68
2023/10/03 09:57:59;;;;;;;4.47;1.63;;;16.10;74.40;;;;;;5054303;28;20044;-67
2023/10/03 10:00:50;;;;;;;;;;;16.10;74.30;;;;;;5057850;28;20102;-72
2023/10/03 10:03:26;;;;;;;4.35;1.42;;;16.10;74.10;;;;;;5048555;28;19938;-67
2023/10/03 10:06:20;;;;;;;4.28;1.45;;;16.20;74.20;;;;;;5057062;28;20032;-67
2023/10/03 10:08:58;;;;;;;6.72;2.33;;;16.20;74.00;;;;;;5036875;28;20037;-67
2023/10/03 10:11:30;;;;;;;4.55;1.50;;;16.20;74.00;;;;;;5055700;28;20294;-67
2023/10/03 10:14:01;;;;;;;4.00;1.63;;;16.30;74.00;;;;;;5056153;28;20408;-67
2023/10/03 10:16:28;;;;;;;5.72;1.52;;;16.40;74.10;;;;;;5052299;28;20033;-67
2023/10/03 10:18:57;;;;;;;3.00;1.35;;;16.40;74.00;;;;;;5039369;28;20028;-68
2023/10/03 10:21:23;;;;;;;3.20;1.38;;;16.40;73.90;;;;;;5055175;28;20049;-68
2023/10/03 10:24:20;;;;;;;4.53;1.30;;;16.50;74.00;;;;;;5058849;28;20082;-68
2023/10/03 10:26:48;;;;;;;2.97;1.40;;;16.50;73.70;;;;;;5050568;28;20032;-67
2023/10/03 10:29:20;;;;;;;3.22;1.63;;;16.60;74.30;;;;;;5051648;28;20025;-69
2023/10/03 10:31:57;;;;;;;2.90;1.42;;;16.60;73.70;;;;;;5059974;28;20155;-67
2023/10/03 10:34:29;;;;;;;4.97;2.10;;;16.70;73.70;;;;;;5054915;28;20028;-69
2023/10/03 10:36:56;;;;;;;5.43;1.40;;;16.70;73.50;;;;;;5049215;28;20177;-70
2023/10/03 10:39:54;;;;;;;5.05;1.55;;;16.70;73.40;;;;;;5057696;28;20445;-70
2023/10/03 10:42:24;;;;;;;4.10;2.17;;;16.80;73.40;;;;;;5057223;28;20105;-71
2023/10/03 10:45:03;;;;;;;1.90;1.30;;;16.90;73.50;;;;;;5057661;28;20028;-70
2023/10/03 10:47:33;;;;;;;5.97;1.77;;;17.00;73.40;;;;;;5059965;28;20032;-72
2023/10/03 10:50:00;;;;;;;4.35;1.60;;;16.90;73.10;;;;;;5046467;28;20373;-73
2023/10/03 10:52:29;;;;;;;5.65;1.92;;;17.00;73.10;;;;;;5057667;28;20040;-70
2023/10/03 10:54:59;;;;;;;4.30;1.95;;;17.10;73.10;;;;;;5057264;28;20526;-68
2023/10/03 10:57:26;;;;;;;3.75;1.40;;;17.30;73.10;;;;;;5050412;28;20021;-72
2023/10/03 10:59:56;;;;;;;5.18;1.70;;;17.40;72.90;;;;;;5053935;28;20045;-72
2023/10/03 11:02:26;;;;;;;5.22;1.55;;;17.50;72.60;;;;;;5048889;28;20125;-67
2023/10/03 11:04:56;;;;;;;4.55;1.52;;;17.70;72.40;;;;;;5056386;28;20032;-68
2023/10/03 11:07:28;;;;;;;8.13;1.85;;;18.00;72.50;;;;;;5054878;28;20131;-73
2023/10/03 11:10:15;;;;;;;4.50;1.52;;;18.10;72.20;;;;;;5058505;28;20078;-69
2023/10/03 11:12:41;;;;;;;6.78;3.10;;;18.30;72.00;;;;;;5060092;28;20506;-68
2023/10/03 11:15:12;;;;;;;4.97;2.10;;;18.30;71.80;;;;;;5051854;28;20353;-69
2023/10/03 11:17:39;;;;;;;3.95;2.05;;;18.30;71.50;;;;;;5044995;28;20512;-67
2023/10/03 11:20:08;;;;;;;5.97;1.88;;;18.40;71.50;;;;;;5056930;28;20044;-69
2023/10/03 11:22:40;;;;;;;3.95;1.55;;;18.40;71.30;;;;;;5057660;28;20347;-67
2023/10/03 11:25:11;;;;;;;4.15;1.67;;;18.30;70.90;;;;;;5054705;28;20114;-68
2023/10/03 11:27:38;;;;;;;5.22;2.28;;;18.30;71.00;;;;;;5056078;28;20028;-68
2023/10/03 11:30:19;;;;;;;4.25;1.73;;;18.20;70.80;;;;;;5063759;28;20108;-70
2023/10/03 11:32:45;;;;;;;4.78;1.58;;;18.20;70.70;;;;;;5067107;28;20242;-71
2023/10/03 11:35:21;;;;;;;8.73;1.98;;;18.20;70.80;;;;;;5062594;28;20378;-69
2023/10/03 11:37:51;;;;;;;3.65;1.58;;;18.20;70.70;;;;;;5054219;28;20029;-71
2023/10/03 11:40:20;;;;;;;4.18;1.42;;;18.20;70.70;;;;;;5057028;28;20044;-72
2023/10/03 11:42:53;;;;;;;3.72;1.80;;;18.20;70.60;;;;;;5059157;28;20439;-73
2023/10/03 11:45:20;;;;;;;;;;;18.20;70.40;;;;;;5059036;28;20315;-73
2023/10/03 11:48:07;;;;;;;2.60;1.67;;;18.20;70.40;;;;;;5053127;28;19912;-71
2023/10/03 11:50:38;;;;;;;3.50;1.38;;;18.20;70.20;;;;;;5054081;28;20065;-69
2023/10/03 11:53:05;;;;;;;5.32;1.80;;;18.20;70.20;;;;;;5053166;28;20064;-71
2023/10/03 11:55:33;;;;;;;5.15;1.60;;;18.30;70.20;;;;;;5058178;28;20049;-69
2023/10/03 11:58:05;;;;;;;3.28;1.80;;;18.30;70.00;;;;;;5051960;28;20511;-72
2023/10/03 12:00:32;;;;;;;5.82;1.52;;;18.30;69.70;;;;;;5060052;28;20048;-68
2023/10/03 12:02:59;;;;;;;4.57;2.05;;;18.30;69.60;;;;;;5060915;28;20483;-67
2023/10/03 12:05:27;;;;;;;4.18;1.85;;;18.30;69.40;;;;;;5059331;28;20476;-67
2023/10/03 12:07:56;;;;;;;2.03;1.00;;;18.40;69.40;;;;;;5060381;28;20059;-68
2023/10/03 12:10:31;;;;;;;6.03;2.38;;;18.40;69.20;;;;;;5057641;28;20051;-68
2023/10/03 12:12:57;;;;;;;3.35;1.38;;;18.40;69.10;;;;;;5060449;28;20688;-68
2023/10/03 12:15:24;;;;;;;2.53;1.00;;;18.50;69.10;;;;;;5051423;28;20037;-67
2023/10/03 12:17:51;;;;;;;4.38;1.00;;;18.50;69.50;;;;;;5053113;28;20028;-67
2023/10/03 12:20:18;;;;;;;3.25;1.00;;;18.50;68.80;;;;;;5063249;28;20048;-68
2023/10/03 12:22:50;;;;;;;5.18;1.20;;;18.60;68.80;;;;;;5062113;28;20025;-69
2023/10/03 12:25:19;;;;;;;5.03;1.63;;;18.60;68.60;;;;;;5055744;28;20039;-68
2023/10/03 12:27:45;;;;;;;4.57;1.65;;;18.70;69.20;;;;;;5059649;28;20024;-68
2023/10/03 12:30:15;;;;;;;6.38;1.60;;;18.70;68.40;;;;;;5060344;28;20016;-67
2023/10/03 12:32:43;;;;;;;5.30;1.65;;;18.80;68.40;;;;;;5058788;28;20037;-68
2023/10/03 12:35:10;;;;;;;7.43;1.30;;;18.80;68.20;;;;;;5059225;28;20423;-69
2023/10/03 12:37:38;;;;;;;4.75;1.00;;;18.90;68.70;;;;;;5056057;28;20033;-67
2023/10/03 12:40:08;;;;;;;3.75;1.15;;;18.90;68.00;;;;;;5054708;28;20552;-71
2023/10/03 12:42:35;;;;;;;1.77;0.90;;;18.90;67.80;;;;;;5059975;28;20491;-69
2023/10/03 12:45:03;;;;;;;3.13;1.20;;;19.00;67.80;;;;;;5062256;28;20533;-71
2023/10/03 12:47:35;;;;;;;2.38;1.23;;;19.10;67.80;;;;;;5054725;28;20214;-69
2023/10/03 12:50:02;;;;;;;4.93;0.98;;;19.20;67.80;;;;;;5059516;28;20039;-71
2023/10/03 12:52:29;;;;;;;5.03;1.60;;;19.20;67.60;;;;;;5050975;28;20381;-69
2023/10/03 12:54:56;;;;;;;9.77;1.77;;;19.30;67.60;;;;;;5056231;28;20093;-69
2023/10/03 12:57:25;;;;;;;3.80;1.25;;;19.30;67.40;;;;;;5053883;28;20032;-71
2023/10/03 12:59:54;;;;;;;3.70;1.42;;;19.40;67.30;;;;;;5057627;28;20329;-68
2023/10/03 13:02:21;;;;;;;6.03;1.58;;;19.50;67.30;;;;;;5057652;28;20044;-70
2023/10/03 13:04:48;;;;;;;5.43;1.23;;;19.60;67.20;;;;;;5057382;28;20115;-68